Latest Coastal Weather Observations for Devonport Airport

IDV60701

Issued at 11:41 pm EST Tuesday 21 May 2024 (issued every 10 minutes, with the page automatically refreshed every 10 minutes)

About coastal observations | Map of coastal stations | Coastal observations for VIC | Marine services | Other Formats
Station Details ID: 091126 Name: DEVONPORT AIRPORT Lat: -41.17 Lon: 146.43 Height: 8.0 m
Data from the previous 72 hours. | See also: Recent months at Devonport Airport
Date/Time
EST
Wind Sea
Height
m
Swell Vis
km
Cloud Weather Temp
°C
Press
MSL
hPa
Rain since
9am
mm
Dir  Spd
kts
Gust
kts
Height
m
Period
s
Dir
21/11:30pm S 7 8 - - - - 10 Partly cloudy - 9.3 1028.0 0.0
21/11:00pm S 7 9 - - - - 10 Cloudy - 9.2 1028.2 0.0
21/10:30pm S 8 10 - - - - 10 Cloudy - 8.9 1028.5 0.0
21/10:00pm S 6 7 - - - - 10 Partly cloudy - 8.3 1028.7 0.0
21/09:30pm SSE 6 7 - - - - 10 Partly cloudy - 8.5 1028.7 0.0
21/09:00pm S 5 6 - - - - 10 Cloudy - 8.4 1028.7 0.0
21/08:30pm SE 3 4 - - - - 10 - - 7.9 1028.7 0.0
21/08:00pm SSE 5 6 - - - - 10 - - 8.4 1029.0 0.0
21/07:30pm SSW 5 5 - - - - 10 Partly cloudy - 9.1 1029.0 0.0
21/07:26pm SSW 5 5 - - - - 10 Partly cloudy - 9.1 1029.0 0.0
21/07:08pm WSW 4 5 - - - - 6 Partly cloudy - 11.1 1028.9 0.0
21/07:00pm W 2 5 - - - - 10 Partly cloudy - 11.2 1028.8 0.0
21/06:30pm WSW 3 6 - - - - 10 Cloudy - 11.5 1028.9 0.0
21/06:00pm WSW 7 8 - - - - 10 Cloudy - 11.4 1028.8 0.0
21/05:30pm WSW 7 8 - - - - 10 Cloudy - 11.0 1028.5 0.0
21/05:00pm WNW 6 8 - - - - 10 Partly cloudy - 10.9 1028.5 0.0
21/04:30pm WNW 7 8 - - - - 10 - - 12.2 1028.6 0.0
21/04:00pm WNW 7 8 - - - - 10 - - 13.1 1028.7 0.0
21/03:30pm NNW 5 7 - - - - 10 - - 13.3 1028.7 0.0
21/03:00pm NNW 5 7 - - - - 10 - - 13.1 1028.7 0.0
21/02:30pm NNW 6 8 - - - - 10 - - 13.0 1028.8 0.0
21/02:00pm NNW 7 8 - - - - 10 - - 13.0 1028.9 0.0
21/01:30pm N 8 9 - - - - 10 - - 12.9 1029.3 0.0
21/01:00pm NNW 7 8 - - - - 10 - - 13.4 1029.7 0.0
21/12:30pm N 6 8 - - - - 10 - - 12.9 1030.0 0.0
21/12:00pm SE 4 7 - - - - 10 - - 12.7 1030.3 0.0
21/11:30am SE 7 9 - - - - 10 - - 11.8 1030.8 0.0
21/11:00am SSE 7 9 - - - - 10 - - 10.9 1031.0 0.0
21/10:30am S 9 12 - - - - 10 - - 9.9 1031.0 0.0
21/10:00am SSE 13 16 - - - - 10 - - 8.2 1030.7 0.0
21/09:30am SSE 12 15 - - - - 10 - - 7.3 1030.6 0.0
21/09:00am S 11 14 - - - - 10 - - 6.1 1030.5 0.0
21/08:30am SSE 12 14 - - - - 10 - - 4.9 1030.2 0.0
21/08:00am SSE 10 12 - - - - 10 - - 3.5 1030.0 0.0
21/07:30am SSE 12 14 - - - - 10 - - 3.3 1030.0 0.0
21/07:00am SSE 12 15 - - - - 10 - - 3.2 1029.8 0.0
21/06:30am S 9 11 - - - - 10 - - 3.3 1029.5 0.0
21/06:00am S 11 14 - - - - 10 - - 3.5 1029.6 0.0
21/05:30am SSE 11 13 - - - - 10 - - 3.3 1029.5 0.0
21/05:00am SSE 11 12 - - - - 10 - - 3.8 1029.4 0.0
21/04:30am SSE 11 13 - - - - 10 - - 3.8 1029.3 0.0
21/04:00am S 9 11 - - - - 10 - - 3.8 1029.4 0.0
21/03:30am S 10 12 - - - - 10 - - 4.0 1029.4 0.0
21/03:00am S 9 12 - - - - 10 - - 4.0 1029.6 0.0
21/02:30am S 9 12 - - - - 10 - - 4.3 1029.8 0.0
21/02:00am SSE 12 14 - - - - 10 - - 4.7 1029.8 0.0
21/01:30am SSE 11 13 - - - - 10 - - 5.1 1029.7 0.0
21/01:00am SSE 13 15 - - - - 10 - - 5.1 1029.8 0.0
21/12:30am SSE 11 13 - - - - 10 - - 4.8 1029.8 0.0
21/12:00am SSE 12 13 - - - - 10 - - 4.7 1029.8 0.0
 
Date/Time
EST
Wind Sea
Height
m
Swell Vis
km
Cloud Weather Temp
°C
Press
MSL
hPa
Rain since
9am
mm
Dir  Spd
kts
Gust
kts
Height
m
Period
s
Dir
20/11:30pm SSE 8 11 - - - - 10 - - 4.0 1029.8 0.0
20/11:00pm S 8 9 - - - - 10 - - 4.3 1029.8 0.0
20/10:30pm SSE 10 12 - - - - 10 - - 4.7 1029.9 0.0
20/10:00pm S 8 9 - - - - 10 - - 5.5 1029.7 0.0
20/09:30pm S 8 9 - - - - 10 - - 5.4 1029.7 0.0
20/09:00pm S 8 10 - - - - 10 - - 5.7 1029.6 0.0
20/08:30pm S 7 9 - - - - 10 - - 5.6 1029.4 0.0
20/08:00pm S 6 7 - - - - 10 - - 5.0 1029.1 0.0
20/07:30pm S 5 6 - - - - 10 - - 5.9 1029.0 0.0
20/07:00pm S 5 6 - - - - 10 - - 6.4 1028.9 0.0
20/06:30pm S 5 5 - - - - 10 - - 7.0 1028.6 0.0
20/06:00pm SW 5 6 - - - - 10 - - 7.5 1028.2 0.0
20/05:30pm WSW 5 7 - - - - 10 - - 9.9 1027.9 0.0
20/05:00pm WNW 7 9 - - - - 10 - - 11.0 1027.6 0.0
20/04:30pm WNW 7 8 - - - - 10 - - 12.7 1027.5 0.0
20/04:00pm NW 7 8 - - - - 10 - - 14.0 1027.3 0.0
20/03:30pm NW 7 8 - - - - 10 - - 14.5 1027.1 0.0
20/03:00pm SW 2 5 - - - - 10 - - 15.6 1027.1 0.0
20/02:30pm SE 3 6 - - - - 10 - - 15.3 1027.1 0.0
20/02:00pm SSW 5 7 - - - - 10 - - 15.1 1027.1 0.0
20/01:30pm SSW 6 8 - - - - 10 - - 14.6 1027.1 0.0
20/01:00pm SE 8 11 - - - - 10 - - 14.4 1027.3 0.0
20/12:30pm SE 10 13 - - - - 10 - - 14.4 1027.5 0.0
20/12:00pm S 10 12 - - - - 10 Mostly clear - 13.9 1027.8 0.0
20/11:30am S 10 13 - - - - 10 - - 12.8 1028.0 0.0
20/11:00am S 11 15 - - - - 10 - - 11.6 1028.0 0.0
20/10:30am S 9 11 - - - - 10 - - 10.7 1028.1 0.0
20/10:00am S 10 15 - - - - 10 - - 9.6 1027.9 0.0
20/09:30am S 14 17 - - - - 10 - - 8.2 1027.8 0.0
20/09:00am S 15 18 - - - - 10 - - 7.4 1027.6 0.0
20/08:30am S 13 16 - - - - 10 - - 6.6 1027.2 0.0
20/08:00am SSE 13 15 - - - - 10 - - 5.4 1026.7 0.0
20/07:30am S 13 16 - - - - 10 - - 5.1 1026.4 0.0
20/07:00am SSE 10 11 - - - - 10 - - 4.3 1026.1 0.0
20/06:30am S 12 15 - - - - 10 - - 5.0 1025.7 0.0
20/06:00am SSE 10 13 - - - - 10 - - 4.8 1025.3 0.0
20/05:30am SSE 9 12 - - - - 10 - - 4.5 1024.6 0.0
20/05:00am SSE 10 13 - - - - 10 - - 4.6 1024.5 0.0
20/04:30am SSE 9 11 - - - - 10 - - 4.5 1024.3 0.0
20/04:00am SSE 10 13 - - - - 10 - - 4.9 1023.8 0.0
20/03:30am S 9 12 - - - - 10 - - 5.4 1023.7 0.0
20/03:00am S 9 12 - - - - 10 - - 5.8 1023.7 0.0
20/02:30am SSE 11 13 - - - - 10 - - 5.6 1023.8 0.0
20/02:00am SSE 11 13 - - - - 10 - - 5.9 1023.6 0.0
20/01:30am SSE 11 12 - - - - 10 - - 6.1 1023.3 0.0
20/01:00am SSE 8 11 - - - - 10 - - 5.7 1023.2 0.0
20/12:30am SSE 4 6 - - - - 10 - - 5.8 1023.4 0.0
20/12:00am SSE 4 6 - - - - 10 - - 6.3 1023.0 0.0
 
Date/Time
EST
Wind Sea
Height
m
Swell Vis
km
Cloud Weather Temp
°C
Press
MSL
hPa
Rain since
9am
mm
Dir  Spd
kts
Gust
kts
Height
m
Period
s
Dir
19/11:30pm SSE 10 12 - - - - 10 - - 7.7 1022.7 0.0
19/11:00pm SSE 9 11 - - - - 10 - - 8.4 1022.5 0.0
19/10:30pm SSE 12 15 - - - - 10 - - 8.5 1022.3 0.0
19/10:00pm SSE 4 7 - - - - 10 - - 7.0 1022.3 0.0
19/09:30pm SSE 7 9 - - - - 10 - - 7.7 1022.0 0.0
19/09:00pm S 9 10 - - - - 10 Mostly clear - 8.1 1021.4 0.0
19/08:30pm S 9 11 - - - - 10 - - 8.8 1021.1 0.0
19/08:00pm SSE 10 12 - - - - 10 - - 8.9 1020.6 0.0
19/07:30pm S 8 9 - - - - 10 Partly cloudy - 9.0 1020.6 0.0
19/07:00pm SSE 7 8 - - - - 10 Partly cloudy - 10.0 1020.0 0.0
19/06:30pm SSW 9 12 - - - - 10 - - 12.4 1019.4 0.0
19/06:00pm SSW 9 12 - - - - 10 - - 12.6 1018.8 0.0
19/05:30pm SW 7 9 - - - - 10 - - 12.8 1018.4 0.0
19/05:00pm SW 6 9 - - - - 10 - - 13.2 1018.0 0.0
19/04:30pm SW 7 9 - - - - 10 - - 14.3 1017.9 0.0
19/04:00pm WSW 9 11 - - - - 10 - - 15.8 1017.6 0.0
19/03:30pm WSW 10 13 - - - - 10 - - 16.3 1017.3 0.0
19/03:00pm WSW 9 13 - - - - 10 - - 16.5 1017.1 0.0
19/02:30pm SW 9 13 - - - - 10 - - 16.6 1016.9 0.0
19/02:00pm WSW 12 15 - - - - 10 - - 16.6 1016.9 0.0
19/01:30pm SW 11 15 - - - - 10 - - 16.3 1017.1 0.0
19/01:00pm SW 10 13 - - - - 10 Partly cloudy - 16.7 1017.2 0.0
19/12:30pm W 11 14 - - - - 10 Partly cloudy - 16.2 1017.3 0.0
19/12:00pm W 10 12 - - - - 10 Partly cloudy - 16.5 1017.6 0.0
19/11:30am WNW 13 16 - - - - 10 - - 15.8 1017.6 0.0
19/11:00am WNW 13 17 - - - - 10 - - 15.2 1017.9 0.0
19/10:30am WNW 16 20 - - - - 10 - - 14.6 1017.9 0.0
19/10:00am W 16 19 - - - - 10 Partly cloudy - 14.6 1017.8 0.0
19/09:30am W 14 18 - - - - 10 Partly cloudy - 13.9 1017.8 0.0
19/09:00am W 14 16 - - - - 10 Partly cloudy - 13.7 1017.8 0.0
19/08:30am W 12 16 - - - - 10 Partly cloudy - 13.1 1017.5 0.0
19/08:00am W 14 17 - - - - 10 Partly cloudy - 13.4 1017.3 0.0
19/07:30am WNW 15 18 - - - - 10 Partly cloudy - 12.7 1016.8 0.0
19/07:00am WNW 17 20 - - - - 10 Partly cloudy - 12.4 1016.7 0.0
19/06:30am WNW 18 22 - - - - 10 Partly cloudy - 12.5 1016.6 0.0
19/06:00am WNW 21 24 - - - - 10 Cloudy - 12.7 1016.4 0.0
19/05:30am WNW 21 25 - - - - 10 Partly cloudy - 12.2 1016.4 0.0
19/05:13am WNW 19 23 - - - - 10 Partly cloudy - 12.0 1016.5 0.0
19/05:00am WNW 21 26 - - - - 10 Partly cloudy - 12.1 1016.6 0.0
19/04:31am WNW 24 29 - - - - 10 Partly cloudy - 12.4 1016.7 0.0
19/04:30am WNW 24 29 - - - - 10 Partly cloudy - 12.3 1016.6 0.0
19/04:00am WNW 25 29 - - - - 10 Partly cloudy - 12.5 1016.9 0.0
19/03:30am WNW 24 29 - - - - 10 Partly cloudy - 12.4 1017.4 0.0
19/03:00am WNW 22 28 - - - - 10 Cloudy - 12.1 1017.9 0.0
19/02:30am WNW 20 25 - - - - 10 Partly cloudy - 11.5 1018.5 0.0
19/02:00am WNW 20 25 - - - - 10 Partly cloudy - 11.1 1019.1 0.0
19/01:43am WNW 17 23 - - - - 10 Partly cloudy - 10.9 1019.5 0.0
19/01:30am WNW 17 23 - - - - 10 Partly cloudy - 10.7 1019.9 0.0
19/01:00am WNW 19 24 - - - - 10 Partly cloudy - 10.8 1020.4 0.0
19/12:30am W 14 18 - - - - 10 - - 10.2 1021.1 0.0
19/12:00am W 16 20 - - - - 10 Cloudy - 10.4 1021.5 0.0

Other formats

Comma delimited format used in spreadsheet applications
http://www.bom.gov.au/fwo/IDV60701/IDV60701.95960.axf

JavaScript Object Notation format (JSON) in row-major order
http://www.bom.gov.au/fwo/IDV60701/IDV60701.95960.json

Data quality

Most of these data are generated automatically and are frequently updated. Quality checks on data are not normally performed. It is possible for incorrect values to appear. Refer to information at About Latest Weather Observations and please check the disclaimer before using these data.